TimeCDT,TemperatureF,Dew PointF,Humidity,Sea Level PressureIn,VisibilityMPH,Wind Direction,Wind SpeedMPH,Gust SpeedMPH,PrecipitationIn,Events,Conditions,WindDirDegrees,DateUTC
12:53 AM,37.0,30.9,79,30.18,10.0,SE,3.5,-,N/A,,Clear,130,2012-10-11 05:53:00
1:53 AM,37.0,32.0,82,30.19,10.0,Calm,Calm,-,N/A,,Clear,0,2012-10-11 06:53:00
2:53 AM,37.0,30.9,79,30.19,10.0,SE,4.6,-,N/A,,Clear,130,2012-10-11 07:53:00
3:53 AM,35.1,30.9,85,30.18,10.0,Calm,Calm,-,N/A,,Clear,0,2012-10-11 08:53:00
4:53 AM,36.0,30.9,82,30.18,10.0,Calm,Calm,-,N/A,,Clear,0,2012-10-11 09:53:00
5:53 AM,36.0,30.9,82,30.17,10.0,ESE,4.6,-,N/A,,Clear,120,2012-10-11 10:53:00
6:53 AM,36.0,30.9,82,30.17,10.0,ESE,4.6,-,N/A,,Clear,110,2012-10-11 11:53:00
7:53 AM,39.9,33.1,77,30.17,10.0,ESE,4.6,-,N/A,,Scattered Clouds,110,2012-10-11 12:53:00
8:53 AM,46.9,34.0,61,30.18,10.0,ESE,4.6,-,N/A,,Overcast,110,2012-10-11 13:53:00
9:53 AM,52.0,35.1,53,30.19,10.0,Variable,3.5,-,N/A,,Overcast,0,2012-10-11 14:53:00
10:53 AM,55.9,36.0,47,30.19,10.0,SE,4.6,-,N/A,,Overcast,140,2012-10-11 15:53:00
11:53 AM,57.0,37.0,47,30.17,10.0,South,5.8,-,N/A,,Overcast,170,2012-10-11 16:53:00
12:53 PM,59.0,39.9,49,30.15,10.0,SE,9.2,-,N/A,,Overcast,140,2012-10-11 17:53:00
1:05 PM,59.0,39.2,48,30.16,10.0,SE,8.1,-,N/A,,Overcast,140,2012-10-11 18:05:00
1:53 PM,60.1,42.1,51,30.12,10.0,SE,9.2,-,N/A,,Overcast,140,2012-10-11 18:53:00
3:48 PM,62.6,44.6,52,30.12,10.0,SSE,8.1,-,N/A,,Overcast,150,2012-10-11 20:48:00
3:53 PM,63.0,45.0,52,30.09,10.0,SSE,8.1,-,N/A,,Overcast,160,2012-10-11 20:53:00
6:53 PM,61.0,46.9,60,30.10,10.0,South,4.6,-,N/A,,Overcast,170,2012-10-11 23:53:00
7:53 PM,60.1,46.9,62,30.13,10.0,South,3.5,-,N/A,,Overcast,180,2012-10-12 00:53:00
8:53 PM,55.9,51.1,84,30.15,6.0,Calm,Calm,-,0.00,,Haze,0,2012-10-12 01:53:00
9:53 PM,55.9,51.1,84,30.15,10.0,Calm,Calm,-,N/A,,Overcast,0,2012-10-12 02:53:00
10:53 PM,55.9,51.1,84,30.17,10.0,Calm,Calm,-,N/A,,Overcast,0,2012-10-12 03:53:00
11:53 PM,55.9,51.1,84,30.17,10.0,Calm,Calm,-,N/A,,Overcast,0,2012-10-12 04:53:00